Time;durP1;ratioP1;P1;durP2;ratioP2;P2;SDS_P1;SDS_P2;PMS_P1;PMS_P2;Temp;Humidity;BMP_temperature;BMP_pressure;BME280_temperature;BME280_humidity;BME280_pressure;Samples;Min_cycle;Max_cycle;Signal;HPM_P1;HPM_P2
2022/03/24 00:00:59;;;;;;;3.05;2.00;;;;;;;21.38;27.15;100272.00;5091413;28;20086;-57
2022/03/24 00:03:25;;;;;;;3.03;2.00;;;;;;;21.36;27.25;100273.50;5091465;28;20054;-57
2022/03/24 00:05:50;;;;;;;2.97;2.17;;;;;;;21.36;27.46;100273.50;5091324;28;20035;-57
2022/03/24 00:08:16;;;;;;;3.60;2.40;;;;;;;21.37;27.23;100275.16;5090509;28;20062;-57
2022/03/24 00:10:41;;;;;;;4.25;2.40;;;;;;;21.37;27.28;100266.81;5091286;28;20036;-57
2022/03/24 00:13:07;;;;;;;3.17;2.17;;;;;;;21.40;27.50;100269.66;5091444;28;20086;-57
2022/03/24 00:15:32;;;;;;;2.83;1.98;;;;;;;22.04;26.63;100264.06;5091260;28;20119;-57
2022/03/24 00:17:58;;;;;;;3.17;1.92;;;;;;;22.85;25.48;100267.03;5090991;28;20093;-57
2022/03/24 00:20:25;;;;;;;2.75;1.95;;;;;;;23.64;24.76;100266.53;5088990;28;20264;-57
2022/03/24 00:22:52;;;;;;;2.40;1.80;;;;;;;24.37;23.90;100263.31;5091312;28;20051;-57
2022/03/24 00:25:17;;;;;;;2.50;1.90;;;;;;;24.21;23.91;100259.03;5091230;28;20044;-50
2022/03/24 00:27:42;;;;;;;3.08;1.90;;;;;;;23.67;24.46;100258.25;5091253;28;20070;-48
2022/03/24 00:30:08;;;;;;;2.90;2.10;;;;;;;23.22;24.86;100265.41;5091163;28;20040;-57
2022/03/24 00:32:35;;;;;;;3.03;2.13;;;;;;;22.86;25.38;100263.94;5091239;28;20044;-57
2022/03/24 00:35:01;;;;;;;2.85;2.13;;;;;;;22.60;25.75;100263.75;5091009;28;20048;-57
2022/03/24 00:37:27;;;;;;;2.85;2.15;;;;;;;22.40;26.19;100263.72;5090938;28;20052;-56
2022/03/24 00:39:52;;;;;;;2.85;1.80;;;;;;;22.23;26.15;100261.34;5091053;28;20040;-57
2022/03/24 00:42:21;;;;;;;3.20;2.00;;;;;;;22.07;26.38;100253.00;5090948;28;20082;-57
2022/03/24 00:44:46;;;;;;;2.97;2.00;;;;;;;21.98;26.59;100257.97;5090926;28;20500;-57
2022/03/24 00:47:13;;;;;;;2.92;2.00;;;;;;;21.93;26.33;100256.28;5090782;28;20101;-52
2022/03/24 00:49:40;;;;;;;3.38;2.10;;;;;;;21.86;26.91;100269.19;5090963;28;20048;-48
2022/03/24 00:52:08;;;;;;;3.05;2.05;;;;;;;21.82;26.99;100259.97;5090671;28;20127;-48
2022/03/24 00:54:34;;;;;;;2.42;1.88;;;;;;;21.75;27.00;100257.81;5090952;28;20048;-50
2022/03/24 00:57:01;;;;;;;2.70;2.00;;;;;;;21.74;26.83;100258.97;5090626;28;20063;-53
2022/03/24 00:59:27;;;;;;;3.13;2.17;;;;;;;21.69;26.66;100257.28;5090667;28;20044;-52
2022/03/24 01:01:55;;;;;;;2.60;2.00;;;;;;;21.70;27.08;100252.50;5089476;28;20048;-49
2022/03/24 01:04:21;;;;;;;3.05;2.00;;;;;;;21.67;27.10;100254.03;5090734;28;20075;-52
2022/03/24 01:06:46;;;;;;;3.75;2.45;;;;;;;21.63;26.82;100247.56;5090706;28;20476;-50
2022/03/24 01:09:12;;;;;;;3.00;2.10;;;;;;;21.63;27.13;100246.75;5090575;28;20131;-50
2022/03/24 01:11:37;;;;;;;2.45;1.88;;;;;;;21.62;27.16;100251.53;5090599;28;20044;-49
2022/03/24 01:14:05;;;;;;;3.42;2.30;;;;;;;21.61;26.96;100249.91;5090461;28;20048;-51
2022/03/24 01:16:31;;;;;;;3.13;2.15;;;;;;;21.62;27.04;100242.38;5090217;28;20056;-50
2022/03/24 01:18:57;;;;;;;2.85;1.95;;;;;;;21.59;27.22;100241.13;5090537;28;20072;-50
2022/03/24 01:21:22;;;;;;;2.90;2.00;;;;;;;21.59;26.82;100246.69;5072051;28;20541;-48
2022/03/24 01:23:47;;;;;;;2.83;2.03;;;;;;;21.60;26.94;100248.31;5090410;28;20117;-48
2022/03/24 01:26:14;;;;;;;2.78;1.98;;;;;;;21.58;26.84;100245.09;5090265;28;20444;-48
2022/03/24 01:28:41;;;;;;;3.15;2.20;;;;;;;21.58;27.14;100244.28;5090284;28;20040;-48
2022/03/24 01:31:08;;;;;;;2.97;2.17;;;;;;;21.58;27.28;100238.72;5090156;28;20071;-51
2022/03/24 01:33:38;;;;;;;3.13;2.33;;;;;;;21.58;27.02;100233.13;5090085;28;20500;-53
2022/03/24 01:36:11;;;;;;;2.80;1.95;;;;;;;21.57;27.06;100239.84;5090042;28;20474;-50
2022/03/24 01:38:37;;;;;;;2.58;1.90;;;;;;;21.57;27.13;100237.88;5108210;27;20055;-52
2022/03/24 01:41:03;;;;;;;3.00;2.10;;;;;;;21.57;27.10;100239.84;5130860;28;20043;-50
2022/03/24 01:43:30;;;;;;;3.28;2.05;;;;;;;21.53;26.97;100234.22;5130959;28;20051;-57
2022/03/24 01:45:56;;;;;;;3.55;2.40;;;;;;;21.54;27.19;100235.81;5130941;28;20043;-57
2022/03/24 01:48:21;;;;;;;2.83;1.95;;;;;;;21.56;26.95;100229.88;5130924;28;20384;-57
2022/03/24 01:50:47;;;;;;;3.03;2.15;;;;;;;21.54;27.11;100230.25;5130751;28;20039;-57
2022/03/24 01:53:13;;;;;;;3.20;2.20;;;;;;;21.54;26.99;100230.25;5130640;28;20522;-57
2022/03/24 01:55:41;;;;;;;3.03;2.05;;;;;;;21.53;26.98;100225.84;5130889;28;20039;-57
2022/03/24 01:58:07;;;;;;;3.05;2.05;;;;;;;21.53;27.22;100231.44;5130899;28;20446;-57
2022/03/24 02:00:33;;;;;;;3.25;2.30;;;;;;;21.53;27.02;100225.06;5130547;28;20039;-56
2022/03/24 02:03:01;;;;;;;2.85;2.03;;;;;;;21.55;27.25;100231.88;5130701;28;20043;-57
2022/03/24 02:05:32;;;;;;;3.05;2.00;;;;;;;21.84;26.90;100230.56;5130604;28;20073;-57
2022/03/24 02:08:03;;;;;;;3.17;2.10;;;;;;;22.43;26.07;100226.78;5130749;28;20047;-57
2022/03/24 02:10:30;;;;;;;3.13;2.25;;;;;;;22.32;26.18;100234.09;5130616;28;20047;-57
2022/03/24 02:12:56;;;;;;;3.00;2.00;;;;;;;22.17;26.27;100232.16;5130121;27;20131;-57
2022/03/24 02:15:22;;;;;;;3.20;2.33;;;;;;;22.27;26.31;100234.38;5130446;28;20046;-56
2022/03/24 02:17:48;;;;;;;3.28;2.20;;;;;;;22.98;25.36;100235.84;5130314;28;20432;-57
2022/03/24 02:20:14;;;;;;;3.08;1.88;;;;;;;23.98;24.31;100220.78;5130341;28;20511;-57
2022/03/24 02:22:39;;;;;;;2.88;2.10;;;;;;;24.08;24.04;100222.16;5130634;28;20372;-57
2022/03/24 02:25:07;;;;;;;3.05;2.28;;;;;;;23.64;24.53;100224.66;5130381;28;20055;-57
2022/03/24 02:27:33;;;;;;;3.05;2.00;;;;;;;23.23;24.84;100219.56;5130096;28;20047;-53
2022/03/24 02:29:58;;;;;;;3.25;2.22;;;;;;;22.92;25.28;100219.78;5130103;28;20043;-52
2022/03/24 02:32:24;;;;;;;3.42;2.20;;;;;;;22.66;25.79;100223.25;5130285;28;20093;-49
2022/03/24 02:34:51;;;;;;;2.72;1.95;;;;;;;22.46;25.80;100228.81;5130089;28;20524;-49
2022/03/24 02:37:22;;;;;;;3.13;1.90;;;;;;;22.29;26.22;100215.31;5129999;28;20051;-51
2022/03/24 02:39:59;;;;;;;3.17;2.10;;;;;;;22.15;26.24;100223.38;5130108;28;20151;-54
2022/03/24 02:42:28;;;;;;;3.03;1.95;;;;;;;22.08;26.61;100225.97;5130141;28;20039;-49
2022/03/24 02:45:07;;;;;;;2.83;2.05;;;;;;;21.98;26.54;100230.91;5130186;28;20043;-48
2022/03/24 02:47:32;;;;;;;2.70;1.90;;;;;;;21.94;26.67;100224.47;5130039;28;20095;-51
2022/03/24 02:49:59;;;;;;;2.90;2.10;;;;;;;21.89;26.59;100226.72;5130029;28;20039;-49
2022/03/24 02:52:24;;;;;;;2.83;1.88;;;;;;;21.86;26.79;100225.47;5129970;28;20058;-52
2022/03/24 02:54:50;;;;;;;2.70;1.88;;;;;;;21.82;26.60;100223.75;5130150;28;20043;-53
2022/03/24 02:57:16;;;;;;;2.85;2.00;;;;;;;21.80;26.70;100234.47;5130004;28;20452;-52
2022/03/24 02:59:42;;;;;;;3.38;2.40;;;;;;;21.78;26.78;100232.00;5129699;28;20054;-50
2022/03/24 03:02:13;;;;;;;2.88;2.13;;;;;;;21.76;26.69;100228.78;5129708;28;20058;-49
2022/03/24 03:04:40;;;;;;;3.05;2.15;;;;;;;21.74;26.92;100230.34;5129766;28;20047;-53
2022/03/24 03:07:06;;;;;;;3.00;2.00;;;;;;;21.73;26.58;100231.50;5129988;28;20044;-49
2022/03/24 03:09:33;;;;;;;2.72;1.88;;;;;;;21.69;27.06;100239.75;5125928;28;20456;-50
2022/03/24 03:11:58;;;;;;;2.83;2.00;;;;;;;21.68;26.79;100238.94;5129674;28;20031;-50
2022/03/24 03:14:25;;;;;;;3.55;2.00;;;;;;;21.68;26.70;100238.16;5129754;28;20417;-51
2022/03/24 03:16:50;;;;;;;2.90;2.05;;;;;;;21.68;26.87;100232.56;5129526;28;20040;-51
2022/03/24 03:19:19;;;;;;;2.92;1.85;;;;;;;21.67;26.89;100231.78;5129739;28;20419;-53
2022/03/24 03:21:46;;;;;;;3.05;2.20;;;;;;;22.32;25.94;100236.06;5129701;28;20109;-52
2022/03/24 03:24:12;;;;;;;2.80;2.03;;;;;;;23.18;25.03;100233.81;5130968;27;20498;-52
2022/03/24 03:26:38;;;;;;;2.83;2.08;;;;;;;23.91;24.31;100242.25;5133318;28;20042;-51
2022/03/24 03:29:06;;;;;;;3.33;2.22;;;;;;;24.52;23.52;100241.94;5133269;28;20414;-53
2022/03/24 03:31:33;;;;;;;3.08;2.15;;;;;;;24.14;24.02;100240.97;5133093;28;20568;-51
2022/03/24 03:33:58;;;;;;;3.22;2.42;;;;;;;23.69;24.62;100246.69;5133009;28;20065;-49
2022/03/24 03:36:24;;;;;;;2.92;2.10;;;;;;;23.31;25.01;100240.03;5132888;28;20481;-52
2022/03/24 03:38:50;;;;;;;2.97;2.03;;;;;;;22.98;25.45;100244.22;5133021;28;20088;-49
2022/03/24 03:41:20;;;;;;;2.92;2.10;;;;;;;22.73;25.67;100242.91;5099147;28;20039;-48
2022/03/24 03:43:47;;;;;;;2.80;1.90;;;;;;;22.55;25.85;100231.38;5133056;28;20055;-53
2022/03/24 03:46:13;;;;;;;3.50;2.30;;;;;;;22.41;26.30;100231.06;5131634;28;20050;-52
2022/03/24 03:48:42;;;;;;;3.00;2.08;;;;;;;22.31;26.17;100235.25;5112088;28;20051;-49
2022/03/24 03:51:08;;;;;;;2.72;2.10;;;;;;;22.22;26.43;100240.25;5112299;28;20073;-53
2022/03/24 03:53:34;;;;;;;2.22;1.70;;;;;;;22.14;26.55;100230.09;5112150;28;20094;-48
2022/03/24 03:56:00;;;;;;;3.38;2.30;;;;;;;22.08;26.36;100232.38;5112054;28;20446;-50
2022/03/24 03:58:26;;;;;;;3.05;2.10;;;;;;;22.03;26.80;100229.03;5112103;28;20511;-51
2022/03/24 04:00:57;;;;;;;2.85;2.00;;;;;;;21.98;26.73;100230.09;5111992;28;20143;-49
2022/03/24 04:03:28;;;;;;;2.90;2.00;;;;;;;21.96;26.83;100238.81;5111924;28;20118;-52
2022/03/24 04:05:55;;;;;;;3.03;1.98;;;;;;;21.93;26.77;100227.59;5112093;28;20043;-52
2022/03/24 04:08:21;;;;;;;3.00;2.10;;;;;;;21.92;26.77;100231.53;5111840;28;20534;-53
2022/03/24 04:10:48;;;;;;;3.05;2.25;;;;;;;21.92;26.95;100234.34;5111850;28;20078;-57
2022/03/24 04:13:15;;;;;;;3.50;2.30;;;;;;;21.89;26.82;100232.28;5111714;28;20042;-56
2022/03/24 04:15:41;;;;;;;3.35;2.33;;;;;;;21.87;26.71;100235.44;5111867;28;20047;-57
2022/03/24 04:18:06;;;;;;;2.78;2.13;;;;;;;21.84;27.03;100230.56;5111653;28;20047;-57
2022/03/24 04:20:34;;;;;;;3.03;2.22;;;;;;;21.84;26.76;100227.78;5111709;28;20051;-57
2022/03/24 04:23:01;;;;;;;3.33;2.00;;;;;;;21.80;27.09;100232.47;5111675;28;20100;-57
2022/03/24 04:25:27;;;;;;;3.08;2.30;;;;;;;21.81;26.91;100236.88;5111820;28;20039;-57
2022/03/24 04:27:53;;;;;;;3.17;2.13;;;;;;;21.80;26.67;100237.25;5111404;28;20457;-57
2022/03/24 04:30:19;;;;;;;3.40;2.30;;;;;;;21.77;26.88;100224.84;5111673;28;20040;-56
2022/03/24 04:32:45;;;;;;;2.88;2.15;;;;;;;21.79;26.84;100230.03;5111704;28;20580;-57
2022/03/24 04:35:11;;;;;;;2.97;2.33;;;;;;;21.77;26.94;100224.84;5111454;28;20035;-57
2022/03/24 04:37:38;;;;;;;2.83;2.03;;;;;;;21.78;26.84;100223.66;5111436;28;20433;-57
2022/03/24 04:40:05;;;;;;;2.90;2.20;;;;;;;21.75;27.29;100229.97;5111420;28;20545;-57
2022/03/24 04:42:31;;;;;;;3.10;2.00;;;;;;;21.74;26.95;100225.56;5111336;28;20126;-57
2022/03/24 04:44:57;;;;;;;3.45;2.30;;;;;;;21.72;27.20;100227.91;5111313;28;20169;-57
2022/03/24 04:47:23;;;;;;;2.97;2.22;;;;;;;22.13;26.51;100220.91;5111325;28;20100;-57
2022/03/24 04:49:49;;;;;;;2.97;2.08;;;;;;;23.07;25.55;100235.59;5111295;28;20118;-57
2022/03/24 04:52:14;;;;;;;3.08;2.25;;;;;;;24.06;24.45;100236.47;5111335;28;20503;-57
2022/03/24 04:54:40;;;;;;;3.42;2.55;;;;;;;23.98;24.42;100242.34;5111144;28;20054;-57
2022/03/24 04:57:06;;;;;;;3.00;2.20;;;;;;;23.57;24.67;100244.84;5111231;28;20051;-57
2022/03/24 04:59:31;;;;;;;3.35;2.33;;;;;;;23.24;25.09;100239.91;5110928;28;20399;-57
2022/03/24 05:01:57;;;;;;;2.95;2.15;;;;;;;22.95;25.52;100247.75;5111086;28;20100;-57
2022/03/24 05:04:23;;;;;;;2.88;2.03;;;;;;;22.72;25.81;100252.44;5110828;28;20050;-57
2022/03/24 05:06:49;;;;;;;3.03;2.03;;;;;;;22.51;25.87;100253.63;5111141;28;20419;-56
2022/03/24 05:09:15;;;;;;;3.00;2.20;;;;;;;22.38;26.09;100257.72;5110955;28;20479;-57
2022/03/24 05:11:40;;;;;;;3.30;2.20;;;;;;;22.24;26.33;100251.81;5110883;28;20555;-57
2022/03/24 05:14:06;;;;;;;3.03;2.08;;;;;;;22.19;26.44;100258.47;5111144;28;20039;-57
2022/03/24 05:16:31;;;;;;;2.90;2.05;;;;;;;22.10;26.54;100251.50;5110650;28;20422;-57
2022/03/24 05:18:56;;;;;;;3.22;2.10;;;;;;;22.07;26.43;100260.53;5110816;28;20523;-57
2022/03/24 05:21:22;;;;;;;2.95;2.15;;;;;;;22.00;26.90;100255.59;5110741;28;20103;-57
2022/03/24 05:23:48;;;;;;;3.42;2.22;;;;;;;21.97;26.83;100259.94;5110889;28;20039;-57
2022/03/24 05:26:14;;;;;;;3.10;2.20;;;;;;;21.93;26.92;100250.72;5110532;28;20039;-57
2022/03/24 05:28:39;;;;;;;2.85;2.10;;;;;;;21.92;26.75;100253.81;5110436;28;20040;-57
2022/03/24 05:31:05;;;;;;;3.17;2.40;;;;;;;21.88;26.92;100256.53;5110711;28;20119;-57
2022/03/24 05:33:31;;;;;;;2.83;2.13;;;;;;;21.89;26.97;100254.56;5110352;28;20108;-56
2022/03/24 05:35:56;;;;;;;2.97;2.38;;;;;;;21.86;27.17;100250.53;5110512;28;20582;-57
2022/03/24 05:38:22;;;;;;;3.05;2.00;;;;;;;21.83;27.17;100251.25;5110537;28;20039;-52
2022/03/24 05:40:47;;;;;;;3.20;2.28;;;;;;;21.83;27.25;100248.47;5110434;28;20051;-50
2022/03/24 05:43:12;;;;;;;3.28;2.50;;;;;;;21.82;27.21;100255.19;5110494;28;20435;-51
2022/03/24 05:45:38;;;;;;;2.92;2.20;;;;;;;21.79;27.32;100261.50;5110447;28;20039;-50
2022/03/24 05:48:04;;;;;;;3.08;2.17;;;;;;;21.77;27.20;100261.03;5109562;28;20040;-52
2022/03/24 05:50:29;;;;;;;3.45;2.50;;;;;;;21.79;27.04;100260.66;5110203;28;21302;-51
2022/03/24 05:52:56;;;;;;;3.70;2.40;;;;;;;21.79;27.47;100266.25;5110074;28;20407;-51
2022/03/24 05:55:23;;;;;;;3.75;2.35;;;;;;;21.77;27.19;100269.38;5110364;28;20130;-51
2022/03/24 05:57:49;;;;;;;3.30;2.20;;;;;;;21.75;27.28;100277.31;5110323;28;20047;-53
2022/03/24 06:00:15;;;;;;;3.53;2.50;;;;;;;21.78;27.31;100272.97;5110329;28;20043;-53
2022/03/24 06:02:43;;;;;;;3.47;2.45;;;;;;;21.78;27.20;100276.56;5110129;28;20067;-57
2022/03/24 06:05:11;;;;;;;3.20;2.20;;;;;;;21.77;27.08;100283.31;5110003;28;20679;-57
2022/03/24 06:07:36;;;;;;;3.30;2.30;;;;;;;21.77;27.08;100282.50;5110281;28;20514;-57
2022/03/24 06:10:03;;;;;;;4.18;2.25;;;;;;;21.73;27.33;100282.44;5110098;28;20732;-57
2022/03/24 06:12:28;;;;;;;3.65;2.25;;;;;;;21.76;26.93;100286.47;5109985;28;20416;-57
2022/03/24 06:14:54;;;;;;;3.25;2.10;;;;;;;21.76;27.29;100286.47;5109870;28;20051;-57
2022/03/24 06:17:20;;;;;;;3.00;2.10;;;;;;;21.76;27.06;100283.69;5109799;28;20385;-57
2022/03/24 06:19:50;;;;;;;3.03;2.00;;;;;;;21.77;27.05;100286.09;5110032;28;20079;-57
2022/03/24 06:22:16;;;;;;;2.50;1.90;;;;;;;21.76;27.11;100284.50;5109776;28;20059;-57
2022/03/24 06:24:43;;;;;;;4.88;2.28;;;;;;;21.75;27.60;100294.00;5109645;28;20047;-54
2022/03/24 06:27:08;;;;;;;6.10;2.20;;;;;;;21.80;27.84;100292.94;5109848;28;20135;-55
2022/03/24 06:29:34;;;;;;;19.20;2.90;;;;;;;21.81;27.95;100295.38;5109792;28;20126;-55
2022/03/24 06:32:00;;;;;;;20.15;3.22;;;;;;;22.09;27.65;100294.47;5109867;28;20078;-55
2022/03/24 06:34:25;;;;;;;11.68;2.53;;;;;;;22.83;26.54;100291.69;5109686;28;20055;-52
2022/03/24 06:36:51;;;;;;;15.35;2.75;;;;;;;23.44;25.88;100293.72;5109780;28;20137;-53
2022/03/24 06:39:20;;;;;;;10.57;2.65;;;;;;;23.94;25.19;100295.41;5109621;28;20101;-56
2022/03/24 06:41:46;;;;;;;10.18;2.70;;;;;;;24.00;25.12;100298.66;5109681;28;20051;-55
2022/03/24 06:44:11;;;;;;;12.57;3.10;;;;;;;23.60;25.44;100292.44;5109809;28;20046;-55
2022/03/24 06:46:38;;;;;;;8.45;2.47;;;;;;;23.28;25.82;100296.59;5109565;28;20048;-58
2022/03/24 06:49:05;;;;;;;8.30;2.60;;;;;;;23.40;25.96;100292.84;5109730;28;20089;-58
2022/03/24 06:51:31;;;;;;;7.43;2.53;;;;;;;24.09;25.25;100297.22;5109466;28;20055;-54
2022/03/24 06:53:57;;;;;;;8.32;2.90;;;;;;;24.83;24.04;100298.66;5091068;28;20048;-53
2022/03/24 06:56:23;;;;;;;7.38;2.72;;;;;;;24.40;24.68;100301.69;5109504;28;20087;-53
2022/03/24 06:58:50;;;;;;;4.65;2.63;;;;;;;23.99;25.08;100308.22;5109856;28;20106;-50
2022/03/24 07:01:16;;;;;;;8.70;2.58;;;;;;;23.59;25.64;100303.97;5112660;28;20515;-54
2022/03/24 07:03:41;;;;;;;3.53;2.47;;;;;;;23.30;25.77;100311.00;5112292;28;20046;-53
2022/03/24 07:06:07;;;;;;;4.55;2.80;;;;;;;23.05;26.24;100299.34;5132702;28;20043;-54
2022/03/24 07:08:32;;;;;;;5.55;2.78;;;;;;;22.86;26.52;100300.19;5133575;28;20139;-52
2022/03/24 07:10:58;;;;;;;6.07;2.60;;;;;;;22.70;26.80;100303.00;5133217;28;20084;-53
2022/03/24 07:13:24;;;;;;;3.72;2.50;;;;;;;22.59;27.03;100307.56;5133246;28;20095;-54
2022/03/24 07:15:49;;;;;;;3.50;2.40;;;;;;;22.50;26.75;100299.41;5132769;28;20046;-54
2022/03/24 07:18:15;;;;;;;4.20;2.90;;;;;;;22.41;26.96;100297.97;5130620;28;20103;-51
2022/03/24 07:20:42;;;;;;;5.88;2.85;;;;;;;22.35;27.24;100294.66;5133088;28;20046;-52
2022/03/24 07:23:08;;;;;;;3.78;2.70;;;;;;;22.30;27.35;100294.16;5132954;28;20043;-53
2022/03/24 07:25:36;;;;;;;4.90;2.90;;;;;;;22.23;27.12;100298.41;5132922;28;20047;-56
2022/03/24 07:28:04;;;;;;;5.50;2.42;;;;;;;22.19;27.17;100300.28;5133084;28;20047;-53
2022/03/24 07:30:29;;;;;;;3.53;2.55;;;;;;;22.19;27.37;100300.28;5133232;28;20071;-54
2022/03/24 07:32:58;;;;;;;4.20;2.60;;;;;;;22.17;27.69;100301.81;5125826;28;20126;-56
2022/03/24 07:35:24;;;;;;;3.38;2.35;;;;;;;22.15;27.50;100301.38;5130941;28;20067;-54
2022/03/24 07:37:51;;;;;;;4.95;2.50;;;;;;;22.13;28.04;100306.50;5131890;28;20047;-50
2022/03/24 07:40:18;;;;;;;6.43;2.67;;;;;;;22.09;27.87;100295.28;5124939;28;20042;-51
2022/03/24 07:42:47;;;;;;;6.00;2.88;;;;;;;22.09;28.12;100298.06;5117730;28;20038;-54
2022/03/24 07:45:13;;;;;;;3.40;2.50;;;;;;;22.07;27.81;100297.56;5112277;28;20050;-56
2022/03/24 07:48:08;;;;;;;3.70;2.42;;;;;;;22.06;28.05;100292.34;5112283;28;20039;-54
2022/03/24 07:50:35;;;;;;;4.90;2.50;;;;;;;22.03;28.09;100295.88;5122616;28;20043;-54
2022/03/24 07:53:25;;;;;;;3.60;2.83;;;;;;;22.01;28.01;100295.44;5125229;28;20043;-56
2022/03/24 07:55:50;;;;;;;3.88;2.70;;;;;;;21.99;28.00;100288.22;5070180;28;20039;-57
2022/03/24 07:58:17;;;;;;;4.70;2.70;;;;;;;21.99;28.04;100290.22;5130732;28;20415;-56
2022/03/24 08:00:44;;;;;;;7.55;2.95;;;;;;;21.99;28.07;100287.44;5129502;28;20209;-56
2022/03/24 08:03:12;;;;;;;3.90;3.10;;;;;;;22.00;27.94;100294.59;5116064;28;20048;-55
2022/03/24 08:05:38;;;;;;;7.95;2.78;;;;;;;22.63;27.41;100293.66;5123161;28;20507;-55
2022/03/24 08:08:04;;;;;;;4.05;3.08;;;;;;;23.46;26.47;100291.34;5118278;28;20047;-57
2022/03/24 08:10:30;;;;;;;4.20;2.92;;;;;;;24.26;25.69;100281.09;5117101;27;20051;-56
2022/03/24 08:12:55;;;;;;;4.20;2.83;;;;;;;24.56;24.92;100286.72;5127597;28;20376;-56
2022/03/24 08:15:20;;;;;;;4.00;2.75;;;;;;;24.08;25.29;100272.47;5121250;28;20581;-57
2022/03/24 08:17:46;;;;;;;4.85;2.72;;;;;;;23.66;25.86;100275.38;5121610;28;20039;-57
2022/03/24 08:20:11;;;;;;;3.97;2.70;;;;;;;23.31;26.28;100279.13;5118614;28;20091;-56
2022/03/24 08:22:38;;;;;;;4.05;2.97;;;;;;;23.02;26.69;100292.53;5132135;28;20388;-55
2022/03/24 08:25:08;;;;;;;3.50;2.55;;;;;;;22.82;26.76;100290.91;5120565;28;20118;-54
2022/03/24 08:27:34;;;;;;;3.95;2.97;;;;;;;22.63;27.28;100288.09;5116696;28;20050;-56
2022/03/24 08:30:00;;;;;;;6.00;2.80;;;;;;;22.49;27.37;100286.59;5121648;28;20146;-56
2022/03/24 08:32:25;;;;;;;4.45;2.65;;;;;;;22.42;27.65;100286.44;5118322;28;20467;-55
2022/03/24 08:34:51;;;;;;;3.58;2.45;;;;;;;22.36;27.72;100281.53;5119987;28;20051;-53
2022/03/24 08:37:16;;;;;;;5.40;2.78;;;;;;;22.30;27.60;100283.00;5130986;28;20047;-55
2022/03/24 08:39:41;;;;;;;4.20;2.80;;;;;;;22.20;27.67;100278.78;5131492;28;20035;-54
2022/03/24 08:42:07;;;;;;;4.32;2.65;;;;;;;22.19;27.86;100279.97;5130387;28;20046;-56
2022/03/24 08:44:32;;;;;;;3.67;2.83;;;;;;;22.12;28.06;100285.38;5117547;28;20047;-55
2022/03/24 08:46:58;;;;;;;4.40;3.30;;;;;;;22.07;27.93;100280.84;5125145;28;20547;-53
2022/03/24 08:49:23;;;;;;;3.80;2.95;;;;;;;22.04;28.19;100273.22;5111059;28;20503;-55
2022/03/24 08:51:48;;;;;;;3.80;2.70;;;;;;;22.02;27.95;100280.34;5124765;28;20047;-56
2022/03/24 08:54:14;;;;;;;3.90;2.75;;;;;;;21.98;28.05;100277.44;5125041;28;20031;-54
2022/03/24 08:56:39;;;;;;;3.92;2.42;;;;;;;21.95;27.98;100270.63;5124209;27;20476;-53
2022/03/24 08:59:05;;;;;;;5.65;2.78;;;;;;;21.95;27.92;100270.63;5121327;28;20502;-54
2022/03/24 09:01:30;;;;;;;3.17;2.47;;;;;;;21.90;27.90;100272.88;5131324;28;20410;-55
2022/03/24 09:03:56;;;;;;;4.32;2.63;;;;;;;21.86;27.99;100267.25;5129478;28;20100;-55
2022/03/24 09:06:22;;;;;;;3.75;2.90;;;;;;;21.86;28.06;100266.41;5129880;28;20038;-56
2022/03/24 09:08:48;;;;;;;4.20;2.50;;;;;;;21.85;28.07;100268.38;5126527;28;20044;-55
2022/03/24 09:11:14;;;;;;;3.92;2.75;;;;;;;21.80;28.39;100263.13;5129005;28;20047;-55
2022/03/24 09:13:40;;;;;;;4.88;2.72;;;;;;;21.80;28.36;100265.09;5129858;28;20039;-56
2022/03/24 09:16:11;;;;;;;3.78;2.60;;;;;;;21.79;28.30;100269.03;5128172;28;20134;-56
2022/03/24 09:18:37;;;;;;;4.10;2.67;;;;;;;21.79;28.31;100266.25;5125073;28;20372;-56
2022/03/24 09:21:03;;;;;;;3.60;2.63;;;;;;;21.77;28.27;100266.59;5113278;28;20499;-55
2022/03/24 09:23:29;;;;;;;4.10;2.80;;;;;;;21.73;28.37;100268.50;5116441;28;20096;-56
2022/03/24 09:25:56;;;;;;;3.33;2.63;;;;;;;21.71;28.31;100254.94;5120622;28;20038;-55
2022/03/24 09:28:24;;;;;;;3.33;2.35;;;;;;;21.69;28.25;100262.03;5127503;28;20039;-57
2022/03/24 09:30:50;;;;;;;4.05;2.65;;;;;;;21.69;28.21;100257.28;5123465;28;20092;-58
2022/03/24 09:33:17;;;;;;;3.30;2.47;;;;;;;21.80;28.37;100245.59;5126343;28;20089;-57
2022/03/24 09:35:42;;;;;;;3.90;2.30;;;;;;;21.90;28.42;100251.41;5117635;28;20047;-58
2022/03/24 09:38:08;;;;;;;4.00;2.42;;;;;;;22.06;28.41;100250.56;5121655;28;20381;-57
2022/03/24 09:40:34;;;;;;;3.72;2.30;;;;;;;22.10;28.42;100252.31;5118205;28;20062;-56
2022/03/24 09:43:01;;;;;;;8.52;2.97;;;;;;;22.07;28.37;100244.63;5120978;28;20071;-57
2022/03/24 09:45:27;;;;;;;4.97;2.30;;;;;;;22.15;28.33;100245.66;5110405;28;20040;-58
2022/03/24 09:47:53;;;;;;;6.43;2.30;;;;;;;22.03;28.17;100234.59;5125183;28;20045;-55
2022/03/24 09:50:18;;;;;;;4.10;2.63;;;;;;;21.91;28.33;100236.31;5122118;28;20139;-56
2022/03/24 09:52:44;;;;;;;4.75;2.67;;;;;;;21.81;28.20;100231.31;5122801;28;20049;-57
2022/03/24 09:55:10;;;;;;;4.15;2.45;;;;;;;21.74;28.56;100222.78;5118736;28;20043;-53
2022/03/24 09:57:36;;;;;;;3.58;2.47;;;;;;;21.70;28.46;100221.88;5120537;28;20060;-53
2022/03/24 10:00:03;;;;;;;3.63;2.38;;;;;;;21.67;28.56;100225.41;5124277;28;20046;-56
2022/03/24 10:02:29;;;;;;;6.72;2.90;;;;;;;21.64;28.19;100226.09;5123544;28;20049;-57
2022/03/24 10:05:01;;;;;;;3.38;2.40;;;;;;;21.60;28.49;100220.47;5125995;28;20514;-56
2022/03/24 10:07:28;;;;;;;3.80;2.47;;;;;;;21.63;28.21;100224.50;5118263;28;20414;-56
2022/03/24 10:09:56;;;;;;;3.45;2.30;;;;;;;21.60;28.17;100219.66;5122036;28;20909;-56
2022/03/24 10:12:37;;;;;;;3.50;2.20;;;;;;;21.55;27.86;100211.56;5116836;28;20411;-57
2022/03/24 10:15:12;;;;;;;3.28;2.30;;;;;;;21.54;27.94;100205.19;5114649;27;20240;-57
2022/03/24 10:17:39;;;;;;;3.60;2.30;;;;;;;21.55;27.92;100200.44;5110830;28;20096;-57
2022/03/24 10:20:08;;;;;;;3.25;2.20;;;;;;;21.53;28.07;100203.59;5115987;27;20084;-57
2022/03/24 10:22:35;;;;;;;3.15;2.28;;;;;;;21.75;28.33;100195.75;5111014;28;20054;-57
2022/03/24 10:25:22;;;;;;;2.95;2.30;;;;;;;21.74;28.16;100196.91;5118876;28;20031;-58
2022/03/24 10:28:05;;;;;;;3.22;2.38;;;;;;;21.72;27.83;100183.38;5114723;27;20040;-60
2022/03/24 10:30:52;;;;;;;3.38;2.28;;;;;;;21.68;27.99;100186.06;5112141;28;20510;-58
2022/03/24 10:33:30;;;;;;;3.45;2.25;;;;;;;21.65;28.25;100175.66;5111368;27;20131;-58
2022/03/24 10:36:15;;;;;;;3.83;2.35;;;;;;;21.63;28.09;100180.75;5118417;28;20084;-58
2022/03/24 10:38:47;;;;;;;3.55;2.50;;;;;;;21.62;28.13;100170.78;5120354;28;20495;-58
2022/03/24 10:41:15;;;;;;;3.05;2.15;;;;;;;22.21;27.69;100174.50;5123990;28;20047;-62
2022/03/24 10:43:41;;;;;;;3.10;2.10;;;;;;;23.04;26.58;100167.41;5117211;28;20095;-57
2022/03/24 10:46:20;;;;;;;5.65;2.30;;;;;;;23.82;25.55;100167.09;5118759;28;20051;-58
2022/03/24 10:48:47;;;;;;;4.50;2.50;;;;;;;24.23;25.00;100161.66;5122514;28;20048;-58
2022/03/24 10:51:24;;;;;;;3.17;2.10;;;;;;;23.71;25.28;100155.75;5130887;28;20043;-58
2022/03/24 10:53:50;;;;;;;4.10;2.30;;;;;;;23.23;25.87;100160.97;5118765;28;20098;-58
2022/03/24 10:56:21;;;;;;;5.35;2.28;;;;;;;22.85;26.47;100150.69;5120368;28;20039;-58
2022/03/24 10:58:59;;;;;;;3.88;2.25;;;;;;;22.57;26.85;100150.94;5122002;28;20039;-58
2022/03/24 11:01:27;;;;;;;3.40;2.13;;;;;;;22.38;26.98;100150.97;5118896;28;20047;-58
2022/03/24 11:03:53;;;;;;;3.35;2.10;;;;;;;22.24;27.28;100149.53;5127034;28;20071;-57
2022/03/24 11:06:20;;;;;;;3.42;2.25;;;;;;;22.20;27.33;100147.81;5126636;28;21578;-58
2022/03/24 11:08:54;;;;;;;3.65;2.10;;;;;;;22.10;27.24;100142.84;5119391;28;20032;-58
2022/03/24 11:11:21;;;;;;;3.22;2.08;;;;;;;22.02;27.18;100127.94;5132666;28;20043;-58
2022/03/24 11:13:51;;;;;;;3.60;2.25;;;;;;;22.00;27.02;100135.81;5128300;28;20091;-58
2022/03/24 11:16:19;;;;;;;3.05;2.17;;;;;;;22.00;27.18;100124.69;5122732;28;20066;-58
2022/03/24 11:18:46;;;;;;;3.13;2.28;;;;;;;21.97;26.91;100122.63;5131473;28;20039;-58
2022/03/24 11:21:34;;;;;;;2.90;2.00;;;;;;;21.90;27.00;100116.91;5130069;28;20130;-58
2022/03/24 11:24:01;;;;;;;2.90;2.10;;;;;;;21.91;26.63;100110.97;5128980;28;20042;-58